Time;durP1;ratioP1;P1;durP2;ratioP2;P2;SDS_P1;SDS_P2;PMS_P1;PMS_P2;Temp;Humidity;BMP_temperature;BMP_pressure;BME280_temperature;BME280_humidity;BME280_pressure;Samples;Min_cycle;Max_cycle;Signal;HPM_P1;HPM_P2
2023/06/26 00:02:46;;;;;;;;;;;;;;;23.73;53.98;100734.06;4978487;28;20053;-81
2023/06/26 00:05:40;;;;;;;5.60;3.45;;;;;;;23.85;53.44;100741.94;4980537;28;19914;-81
2023/06/26 00:08:35;;;;;;;6.40;2.78;;;;;;;23.86;53.70;100744.31;4967932;28;20049;-83
2023/06/26 00:11:30;;;;;;;5.57;2.67;;;;;;;23.90;53.41;100746.28;4969176;28;20050;-83
2023/06/26 00:14:24;;;;;;;5.00;3.00;;;;;;;23.91;53.40;100750.63;4966455;28;20417;-81
2023/06/26 00:17:19;;;;;;;6.82;2.40;;;;;;;23.80;53.63;100745.94;4951473;28;20069;-82
2023/06/26 00:20:12;;;;;;;;;;;;;;;23.77;53.39;100745.97;4916532;29;20047;-82
2023/06/26 00:23:07;;;;;;;4.50;2.50;;;;;;;23.62;53.89;100739.66;4927268;29;19918;-82
2023/06/26 00:26:01;;;;;;;4.25;2.50;;;;;;;23.70;53.94;100740.44;4957352;28;20055;-82
2023/06/26 00:28:56;;;;;;;5.50;2.85;;;;;;;23.47;53.92;100738.13;4941562;29;20046;-82
2023/06/26 00:31:50;;;;;;;5.22;2.88;;;;;;;23.51;54.26;100736.16;4957641;28;20054;-80
2023/06/26 00:34:45;;;;;;;3.53;2.30;;;;;;;23.24;55.34;100737.78;4955129;28;20042;-80
2023/06/26 00:37:40;;;;;;;3.38;2.35;;;;;;;23.15;55.34;100740.19;4980181;28;20410;-81
2023/06/26 00:40:35;;;;;;;4.85;2.60;;;;;;;23.19;55.39;100735.41;4968760;28;20049;-80
2023/06/26 00:43:29;;;;;;;3.97;2.53;;;;;;;23.13;55.22;100732.25;4965061;28;20054;-81
2023/06/26 00:46:24;;;;;;;3.20;2.28;;;;;;;23.23;55.52;100738.97;4968882;28;20050;-80
2023/06/26 00:49:18;;;;;;;8.10;2.72;;;;;;;23.25;55.53;100742.16;4969281;28;20054;-81
2023/06/26 00:52:11;;;;;;;5.97;3.10;;;;;;;23.38;54.72;100741.31;4969112;28;20042;-79
2023/06/26 00:55:03;;;;;;;6.35;3.40;;;;;;;23.25;55.31;100740.16;4968327;28;20049;-80
2023/06/26 00:57:58;;;;;;;5.07;3.08;;;;;;;23.10;55.76;100740.59;4965923;28;20049;-81
2023/06/26 01:00:53;;;;;;;4.07;2.63;;;;;;;23.01;56.25;100744.56;4979571;28;20426;-81
2023/06/26 01:03:51;;;;;;;11.90;2.90;;;;;;;22.89;56.59;100741.41;4950183;28;20050;-81
2023/06/26 01:06:48;;;;;;;4.60;2.75;;;;;;;22.59;57.93;100744.59;4967122;28;20043;-81
2023/06/26 01:09:43;;;;;;;6.53;2.88;;;;;;;22.56;57.74;100739.81;4962898;28;20046;-81
2023/06/26 01:12:38;;;;;;;8.90;2.97;;;;;;;22.73;57.31;100744.59;4972278;28;20422;-81
2023/06/26 01:15:33;;;;;;;41.47;3.83;;;;;;;22.58;58.40;100737.44;4933278;29;20066;-81
2023/06/26 01:18:25;;;;;;;6.80;3.10;;;;;;;22.95;56.16;100735.09;4963537;28;20035;-80
2023/06/26 01:21:20;;;;;;;4.40;2.70;;;;;;;22.82;56.85;100735.88;4946451;29;20043;-82
2023/06/26 01:24:20;;;;;;;7.57;3.17;;;;;;;22.88;56.38;100740.63;4947816;29;20050;-81
2023/06/26 01:27:13;;;;;;;5.20;2.55;;;;;;;22.94;56.37;100741.00;4960445;28;20528;-82
2023/06/26 01:30:08;;;;;;;8.70;2.92;;;;;;;22.91;56.30;100731.50;4960737;28;20058;-80
2023/06/26 01:33:03;;;;;;;12.75;3.63;;;;;;;22.78;56.93;100735.88;4942986;29;20046;-81
2023/06/26 01:35:58;;;;;;;7.82;3.28;;;;;;;22.83;56.41;100732.72;4934389;28;20498;-82
2023/06/26 01:38:50;;;;;;;;;;;;;;;22.70;56.99;100734.28;4944615;29;20414;-82
2023/06/26 01:41:45;;;;;;;5.53;2.83;;;;;;;22.58;57.49;100724.38;4968942;28;19919;-82
2023/06/26 01:44:45;;;;;;;5.15;2.53;;;;;;;22.72;57.11;100726.38;4959261;28;20513;-82
2023/06/26 01:47:42;;;;;;;5.68;3.47;;;;;;;22.73;56.81;100722.41;4941460;29;20050;-79
2023/06/26 01:50:37;;;;;;;6.07;2.50;;;;;;;22.66;56.72;100722.38;4957830;28;20051;-82
2023/06/26 01:53:32;;;;;;;5.20;2.45;;;;;;;22.68;56.76;100725.56;4941453;29;20050;-82
2023/06/26 01:56:28;;;;;;;4.45;2.58;;;;;;;22.67;56.32;100721.19;4953536;29;20047;-82
2023/06/26 01:59:24;;;;;;;7.32;3.53;;;;;;;22.58;56.85;100727.16;4950592;28;20422;-81
2023/06/26 02:02:17;;;;;;;6.22;3.00;;;;;;;22.39;57.41;100723.97;4943536;29;20136;-81
2023/06/26 02:05:12;;;;;;;4.78;3.33;;;;;;;22.52;57.32;100730.72;4940765;29;20047;-80
2023/06/26 02:08:07;;;;;;;6.82;2.90;;;;;;;22.76;56.58;100735.47;4957445;28;20038;-81
2023/06/26 02:11:01;;;;;;;6.40;3.17;;;;;;;22.78;55.86;100726.78;4943905;29;20051;-80
2023/06/26 02:13:56;;;;;;;3.78;2.60;;;;;;;22.72;56.53;100740.25;4941285;29;20066;-80
2023/06/26 02:16:51;;;;;;;3.72;2.40;;;;;;;22.74;56.71;100739.84;4945478;29;20438;-80
2023/06/26 02:19:47;;;;;;;4.10;2.65;;;;;;;22.59;56.77;100750.13;4956462;29;20050;-80
2023/06/26 02:22:41;;;;;;;5.80;2.83;;;;;;;22.64;56.68;100751.69;4958325;29;20437;-80
2023/06/26 02:25:36;;;;;;;10.65;2.92;;;;;;;22.41;57.69;100749.31;4953153;29;20042;-80
2023/06/26 02:28:30;;;;;;;7.88;3.05;;;;;;;22.41;57.46;100746.53;4967842;28;20499;-79
2023/06/26 02:31:25;;;;;;;5.70;2.95;;;;;;;22.43;57.42;100746.94;4933084;28;20050;-81
2023/06/26 02:34:21;;;;;;;5.63;2.40;;;;;;;22.63;57.46;100745.38;4959719;28;20047;-80
2023/06/26 02:37:15;;;;;;;4.22;2.90;;;;;;;22.45;57.31;100745.34;4944769;28;20047;-81
2023/06/26 02:40:08;;;;;;;2.63;2.22;;;;;;;22.42;57.13;100743.38;4943161;29;20059;-81
2023/06/26 02:43:02;;;;;;;4.60;2.53;;;;;;;22.28;58.27;100745.34;4949361;29;20042;-80
2023/06/26 02:45:57;;;;;;;5.90;2.60;;;;;;;22.32;58.33;100751.69;4957644;28;20042;-81
2023/06/26 02:48:51;;;;;;;7.50;2.70;;;;;;;22.32;58.06;100752.47;4960787;28;20042;-81
2023/06/26 02:51:47;;;;;;;4.30;2.40;;;;;;;22.26;58.36;100748.50;4949645;28;20050;-82
2023/06/26 02:54:46;;;;;;;4.15;2.60;;;;;;;22.06;58.87;100741.72;4938269;28;20045;-80
2023/06/26 02:57:40;;;;;;;9.50;3.95;;;;;;;21.97;59.04;100744.88;4934265;28;20046;-80
2023/06/26 03:00:35;;;;;;;6.72;2.88;;;;;;;21.90;59.43;100749.56;4933472;29;20054;-80
2023/06/26 03:03:30;;;;;;;6.55;2.60;;;;;;;22.04;59.65;100753.22;4926919;29;20063;-80
2023/06/26 03:06:22;;;;;;;10.88;2.28;;;;;;;22.39;58.07;100748.91;4931943;29;20046;-81
2023/06/26 03:09:16;;;;;;;4.65;2.53;;;;;;;22.57;57.20;100749.72;4928167;29;20051;-81
2023/06/26 03:12:12;;;;;;;5.70;2.40;;;;;;;22.53;57.25;100748.94;4937163;29;20047;-80
2023/06/26 03:15:04;;;;;;;5.65;3.15;;;;;;;22.32;57.85;100746.94;4929703;29;20537;-81
2023/06/26 03:17:56;;;;;;;;;;;;;;;22.24;58.55;100744.56;4916287;29;20046;-81
2023/06/26 03:20:52;;;;;;;6.50;2.63;;;;;;;22.26;58.39;100750.47;4924512;29;20297;-82
2023/06/26 03:23:46;;;;;;;4.25;2.70;;;;;;;22.38;58.10;100752.88;4915087;29;20047;-82
2023/06/26 03:26:41;;;;;;;4.65;2.33;;;;;;;22.54;57.54;100748.53;4931189;29;20047;-81
2023/06/26 03:29:36;;;;;;;5.10;2.75;;;;;;;22.61;57.05;100754.06;4926579;29;20051;-80
2023/06/26 03:32:31;;;;;;;6.80;2.88;;;;;;;22.78;56.55;100752.53;4915701;29;20054;-81
2023/06/26 03:35:21;;;;;;;;;;;;;;;23.05;55.77;100744.56;4927515;29;20059;-80
2023/06/26 03:38:16;;;;;;;8.80;2.58;;;;;;;22.75;55.91;100755.31;4939748;28;19914;-81
2023/06/26 03:41:10;;;;;;;4.25;2.50;;;;;;;22.47;57.02;100761.59;4918630;29;20043;-82
2023/06/26 03:44:02;;;;;;;4.60;2.78;;;;;;;22.34;57.67;100763.16;4930932;29;20047;-80
2023/06/26 03:47:01;;;;;;;6.35;2.85;;;;;;;22.47;57.32;100761.59;4925794;29;20051;-79
2023/06/26 03:49:55;;;;;;;2.90;2.40;;;;;;;22.76;56.57;100754.88;4966692;23;20055;-80
2023/06/26 03:52:50;;;;;;;4.85;2.65;;;;;;;22.99;55.28;100763.59;4973714;28;20050;-80
2023/06/26 03:55:45;;;;;;;6.28;2.80;;;;;;;22.64;56.30;100758.03;4966576;28;20054;-80
2023/06/26 03:58:37;;;;;;;6.75;2.70;;;;;;;22.68;56.55;100766.34;4943244;28;20046;-80
2023/06/26 04:01:34;;;;;;;4.05;2.67;;;;;;;22.85;55.65;100762.81;4955365;28;20046;-80
2023/06/26 04:04:31;;;;;;;13.60;2.70;;;;;;;22.59;56.88;100767.56;4950505;29;20062;-80
2023/06/26 04:07:23;;;;;;;5.70;2.92;;;;;;;22.73;56.46;100758.47;4953709;28;20040;-81
2023/06/26 04:10:17;;;;;;;6.40;3.00;;;;;;;23.17;55.57;100765.53;4952481;28;20418;-81
2023/06/26 04:13:10;;;;;;;2.72;2.15;;;;;;;23.48;54.27;100761.91;4951366;28;20058;-79
2023/06/26 04:16:01;;;;;;;4.97;2.25;;;;;;;23.78;53.43;100764.97;4941731;29;20066;-81
2023/06/26 04:18:56;;;;;;;5.78;2.05;;;;;;;23.96;52.47;100766.88;4965904;28;20046;-82
2023/06/26 04:21:51;;;;;;;5.15;2.53;;;;;;;24.07;52.23;100773.97;4955516;28;20046;-81
2023/06/26 04:24:43;;;;;;;6.57;2.63;;;;;;;24.17;51.92;100775.13;4938967;29;20094;-81
2023/06/26 04:27:37;;;;;;;6.88;2.28;;;;;;;24.16;51.97;100773.53;4955905;28;20520;-82
2023/06/26 04:30:32;;;;;;;3.78;2.22;;;;;;;24.32;51.81;100773.06;4924498;29;20058;-82
2023/06/26 04:33:25;;;;;;;3.20;2.65;;;;;;;24.44;51.21;100773.34;4957605;28;20241;-82
2023/06/26 04:36:19;;;;;;;4.80;2.58;;;;;;;24.53;50.96;100776.44;4942993;29;20093;-82
2023/06/26 04:39:14;;;;;;;5.88;2.65;;;;;;;24.49;51.07;100778.47;4959586;28;20093;-83
2023/06/26 04:42:10;;;;;;;12.40;2.80;;;;;;;24.69;50.83;100773.94;4952738;28;20050;-82
2023/06/26 04:45:04;;;;;;;10.27;3.22;;;;;;;24.82;50.77;100776.25;4937865;29;20406;-80
2023/06/26 04:47:54;;;;;;;6.05;2.30;;;;;;;24.87;50.14;100775.81;4942867;28;20043;-81
2023/06/26 04:50:53;;;;;;;9.05;3.13;;;;;;;24.94;50.11;100775.78;4947272;28;20037;-80
2023/06/26 04:53:45;;;;;;;7.95;3.10;;;;;;;25.01;50.06;100781.25;4960670;28;20046;-79
2023/06/26 04:56:39;;;;;;;3.88;2.65;;;;;;;25.06;49.70;100778.03;4943779;28;20062;-78
2023/06/26 04:59:31;;;;;;;7.22;2.33;;;;;;;25.10;49.37;100781.56;4959305;28;20054;-78
2023/06/26 05:02:26;;;;;;;5.45;2.45;;;;;;;25.14;49.55;100782.34;4968436;28;20054;-78
2023/06/26 05:05:21;;;;;;;7.75;2.38;;;;;;;25.17;49.46;100775.94;4967945;28;20405;-80
2023/06/26 05:08:26;;;;;;;;;;;;;;;25.19;49.28;100778.31;4944865;28;20042;-80
2023/06/26 05:11:16;;;;;;;;;;;;;;;25.18;49.17;100777.53;4974967;28;19914;-79
2023/06/26 05:14:12;;;;;;;9.63;3.15;;;;;;;25.25;49.02;100774.66;4958567;28;19918;-79
2023/06/26 05:17:04;;;;;;;12.02;2.65;;;;;;;25.29;49.05;100772.63;4961802;28;20050;-80
2023/06/26 05:19:58;;;;;;;10.35;3.00;;;;;;;25.30;49.01;100785.34;4946314;28;20054;-78
2023/06/26 05:22:51;;;;;;;4.35;2.10;;;;;;;25.35;48.76;100776.53;4943097;28;20050;-79
2023/06/26 05:25:46;;;;;;;9.07;2.80;;;;;;;25.36;48.70;100777.31;4946490;28;20413;-79
2023/06/26 05:28:39;;;;;;;15.77;2.90;;;;;;;25.34;49.13;100774.97;4954361;28;20433;-84
2023/06/26 05:31:33;;;;;;;7.40;2.42;;;;;;;25.41;48.62;100774.88;4949600;28;20039;-81
2023/06/26 05:34:34;;;;;;;18.40;3.58;;;;;;;25.46;48.51;100782.78;4951041;28;20055;-81
2023/06/26 05:37:30;;;;;;;11.50;2.83;;;;;;;25.46;48.65;100777.22;4966697;28;20046;-80
2023/06/26 05:40:24;;;;;;;12.32;3.10;;;;;;;25.59;48.40;100774.72;4964853;28;20061;-81
2023/06/26 05:43:15;;;;;;;17.92;3.47;;;;;;;25.69;47.72;100778.56;4942251;28;20043;-80
2023/06/26 05:46:09;;;;;;;11.48;2.72;;;;;;;25.69;47.69;100778.56;4963353;28;20054;-79
2023/06/26 05:49:04;;;;;;;10.38;3.20;;;;;;;25.76;47.53;100767.31;4960956;28;20039;-79
2023/06/26 05:52:00;;;;;;;8.85;2.50;;;;;;;25.81;46.99;100772.44;4972173;28;20049;-77
2023/06/26 05:54:58;;;;;;;10.07;2.72;;;;;;;25.90;46.40;100761.59;4948826;28;20074;-79
2023/06/26 05:57:54;;;;;;;4.15;2.42;;;;;;;25.90;46.54;100762.38;4959857;28;20050;-78
2023/06/26 06:00:46;;;;;;;11.23;3.03;;;;;;;26.11;44.39;100771.66;4950183;28;20524;-80
2023/06/26 06:03:41;;;;;;;9.32;2.22;;;;;;;26.18;44.35;100777.91;4960393;28;20043;-78
2023/06/26 06:06:31;;;;;;;;;;;;;;;26.25;45.01;100788.22;4945800;28;20046;-77
2023/06/26 06:09:25;;;;;;;10.52;2.85;;;;;;;26.18;45.11;100779.91;4948447;28;19918;-78
2023/06/26 06:12:18;;;;;;;;;;;;;;;25.77;48.51;100782.84;4959605;28;20051;-76
2023/06/26 06:15:12;;;;;;;5.95;2.22;;;;;;;26.00;46.60;100777.38;4974941;28;19917;-79
2023/06/26 06:18:04;;;;;;;;;;;;;;;26.28;46.28;100779.00;4957905;28;20042;-77
2023/06/26 06:20:59;;;;;;;10.88;2.60;;;;;;;26.15;47.10;100778.75;4961979;28;19914;-80
2023/06/26 06:23:52;;;;;;;10.00;2.72;;;;;;;26.03;47.04;100790.47;4946608;28;20533;-76
2023/06/26 06:26:44;;;;;;;5.68;3.13;;;;;;;25.97;46.97;100783.78;4978547;28;20027;-79
2023/06/26 06:29:38;;;;;;;7.22;2.40;;;;;;;26.19;46.72;100779.50;4954584;28;20050;-78
2023/06/26 06:32:33;;;;;;;7.03;2.45;;;;;;;26.19;46.10;100784.28;4966507;28;20070;-80
2023/06/26 06:35:25;;;;;;;11.77;2.70;;;;;;;26.27;46.53;100781.00;4949040;28;20054;-80
2023/06/26 06:38:18;;;;;;;13.45;2.70;;;;;;;26.41;45.39;100782.00;4965891;28;20065;-79
2023/06/26 06:41:13;;;;;;;20.08;3.33;;;;;;;26.48;44.93;100777.09;4954111;28;20041;-78
2023/06/26 06:44:05;;;;;;;12.90;3.13;;;;;;;26.83;44.83;100787.66;4935137;28;20043;-78
2023/06/26 06:46:58;;;;;;;15.57;4.18;;;;;;;26.50;45.38;100787.84;4952285;28;20041;-81
2023/06/26 06:49:50;;;;;;;17.67;3.22;;;;;;;26.88;45.17;100782.84;4954048;28;20106;-82
2023/06/26 06:52:42;;;;;;;;;;;;;;;26.89;45.10;100781.63;4944904;28;20043;-79
2023/06/26 06:55:34;;;;;;;8.00;2.58;;;;;;;26.98;45.01;100781.88;4954784;28;19918;-81
2023/06/26 06:58:28;;;;;;;14.50;3.45;;;;;;;26.93;46.07;100783.16;4938070;28;20046;-80
2023/06/26 07:01:20;;;;;;;17.23;3.38;;;;;;;26.99;45.63;100789.03;4946540;29;20499;-81
2023/06/26 07:04:15;;;;;;;20.20;3.38;;;;;;;26.99;44.80;100783.44;4944052;29;20043;-81
2023/06/26 07:07:09;;;;;;;11.15;3.00;;;;;;;27.12;45.48;100790.78;4964469;28;20046;-81
2023/06/26 07:10:01;;;;;;;;;;;;;;;27.49;44.14;100788.91;4945629;28;20047;-78
2023/06/26 07:12:56;;;;;;;16.88;3.92;;;;;;;27.67;43.52;100781.00;4955655;28;19914;-82
2023/06/26 07:15:51;;;;;;;10.77;3.58;;;;;;;27.61;44.34;100777.91;4954916;28;20039;-84
2023/06/26 07:18:43;;;;;;;;;;;;;;;27.67;44.17;100777.41;4955020;28;20058;-81
2023/06/26 07:21:35;;;;;;;6.57;2.90;;;;;;;27.51;45.28;100783.72;4965097;28;19979;-82
2023/06/26 07:24:33;;;;;;;9.82;2.75;;;;;;;27.51;43.93;100778.13;4961354;28;20271;-81
2023/06/26 07:27:26;;;;;;;13.32;2.88;;;;;;;27.91;43.62;100776.09;4938800;28;20054;-81
2023/06/26 07:30:18;;;;;;;6.75;2.45;;;;;;;27.89;42.39;100775.72;4939697;28;20066;-80
2023/06/26 07:33:12;;;;;;;25.40;3.88;;;;;;;27.73;42.75;100775.69;4937603;28;20309;-83
2023/06/26 07:36:04;;;;;;;;;;;;;;;28.17;42.00;100779.94;4955765;28;20054;-79
2023/06/26 07:38:57;;;;;;;5.05;2.67;;;;;;;28.46;40.82;100780.84;4956285;28;19914;-80
2023/06/26 07:41:47;;;;;;;19.85;2.92;;;;;;;28.49;41.19;100783.59;4954567;29;20050;-81
2023/06/26 07:44:39;;;;;;;9.13;2.20;;;;;;;28.68;39.67;100783.94;4941173;29;20039;-81
2023/06/26 07:47:34;;;;;;;3.75;2.65;;;;;;;28.82;40.11;100778.78;4957715;28;20058;-82
2023/06/26 07:50:26;;;;;;;4.07;2.35;;;;;;;29.56;38.83;100789.25;4936339;29;20047;-80
2023/06/26 07:53:21;;;;;;;7.25;2.50;;;;;;;29.19;38.46;100782.25;4952043;28;20046;-82
2023/06/26 07:56:16;;;;;;;2.97;2.30;;;;;;;29.13;38.55;100787.59;4950674;28;20054;-82
2023/06/26 07:59:11;;;;;;;8.95;2.70;;;;;;;30.08;37.73;100780.50;4956942;28;20453;-81
2023/06/26 08:02:06;;;;;;;6.50;2.55;;;;;;;30.16;36.81;100787.50;4957566;28;20046;-82
2023/06/26 08:05:00;;;;;;;4.93;2.10;;;;;;;31.36;34.44;100786.31;4941599;29;20070;-82
2023/06/26 08:07:53;;;;;;;3.63;1.90;;;;;;;31.11;35.36;100782.81;4959457;28;20051;-82
2023/06/26 08:10:45;;;;;;;30.25;3.45;;;;;;;30.75;35.92;100780.41;4951476;28;20062;-81
2023/06/26 08:13:40;;;;;;;6.53;2.13;;;;;;;33.22;32.20;100789.06;4949082;28;20046;-81
2023/06/26 08:16:34;;;;;;;10.88;2.92;;;;;;;34.43;30.04;100789.94;4968996;28;20042;-81
2023/06/26 08:19:26;;;;;;;11.07;2.60;;;;;;;38.64;23.53;100801.72;4971165;28;20043;-82
2023/06/26 08:22:21;;;;;;;18.45;2.83;;;;;;;42.44;19.66;100801.34;4947550;28;20498;-82
2023/06/26 08:25:16;;;;;;;8.07;2.30;;;;;;;41.93;19.94;100803.09;4955211;28;20043;-82
2023/06/26 08:28:04;;;;;;;4.03;1.92;;;;;;;39.46;22.58;100791.25;4941223;29;20054;-84
2023/06/26 08:30:55;;;;;;;33.47;3.55;;;;;;;41.20;20.26;100791.31;4961081;28;20512;-89
2023/06/26 08:33:48;;;;;;;52.88;11.57;;;;;;;36.66;25.06;100778.00;4970188;28;20039;-84
2023/06/26 08:36:44;;;;;;;82.43;18.15;;;;;;;33.62;29.48;100780.44;4943464;28;20583;-86
2023/06/26 08:39:40;;;;;;;37.22;7.97;;;;;;;32.25;32.98;100774.56;4938340;29;20503;-87
2023/06/26 08:42:28;;;;;;;14.32;2.63;;;;;;;31.54;34.14;100765.22;4939873;29;20051;-86
2023/06/26 08:45:21;;;;;;;13.95;4.75;;;;;;;30.80;34.43;100762.97;4957363;28;20047;-86
2023/06/26 08:48:15;;;;;;;20.70;4.97;;;;;;;30.44;34.81;100766.94;4942981;29;20039;-86
2023/06/26 08:51:12;;;;;;;16.95;4.97;;;;;;;30.40;34.78;100769.09;4959690;28;20077;-86
2023/06/26 08:54:09;;;;;;;17.30;3.97;;;;;;;30.25;35.51;100764.38;4971905;28;20043;-86
2023/06/26 08:57:04;;;;;;;86.43;8.10;;;;;;;30.13;35.68;100760.31;4973469;28;20069;-86
2023/06/26 09:00:19;;;;;;;13.05;3.10;;;;;;;30.20;35.64;100759.31;4977099;28;20047;-85
2023/06/26 09:03:14;;;;;;;30.92;8.05;;;;;;;30.16;36.42;100753.81;4959682;28;20039;-85
2023/06/26 09:06:10;;;;;;;13.57;3.92;;;;;;;30.13;37.41;100746.28;4951084;28;20050;-86
2023/06/26 09:09:05;;;;;;;15.55;4.55;;;;;;;30.21;36.68;100750.47;4961297;28;20046;-85
2023/06/26 09:11:57;;;;;;;12.07;3.70;;;;;;;30.14;36.24;100745.84;4973741;28;20047;-86
2023/06/26 09:14:51;;;;;;;13.70;4.82;;;;;;;30.14;35.91;100743.03;4971834;28;20039;-86
2023/06/26 09:17:46;;;;;;;10.20;2.65;;;;;;;30.15;36.39;100746.63;4961705;28;20047;-85
2023/06/26 09:20:41;;;;;;;4.28;2.28;;;;;;;30.21;36.71;100749.69;4963781;28;20065;-86
2023/06/26 09:23:33;;;;;;;;;;;;;;;30.29;35.23;100745.41;4961623;28;20062;-83
2023/06/26 09:26:30;;;;;;;8.07;3.05;;;;;;;30.33;36.90;100735.63;4972259;28;19914;-84
2023/06/26 09:29:26;;;;;;;9.60;2.97;;;;;;;30.33;35.78;100737.63;4962414;28;20062;-85
2023/06/26 09:32:21;;;;;;;5.10;2.00;;;;;;;30.26;35.31;100738.69;4973866;28;20041;-87
2023/06/26 09:35:17;;;;;;;7.03;2.40;;;;;;;30.42;35.09;100734.97;4950301;28;20054;-86
2023/06/26 09:38:11;;;;;;;9.40;2.10;;;;;;;30.51;35.89;100726.66;4974661;28;20053;-86
2023/06/26 09:41:06;;;;;;;10.60;3.42;;;;;;;30.34;35.61;100725.97;4955378;28;20046;-86
2023/06/26 09:44:03;;;;;;;8.57;3.38;;;;;;;30.34;35.11;100725.97;4968441;28;20045;-87
2023/06/26 09:46:59;;;;;;;10.95;2.60;;;;;;;30.43;34.62;100723.25;4952817;28;20065;-86
2023/06/26 09:49:54;;;;;;;5.00;2.53;;;;;;;30.75;34.67;100718.63;4961291;23;20048;-84
2023/06/26 09:52:49;;;;;;;23.13;3.13;;;;;;;30.66;34.83;100718.53;4943886;29;20055;-84
2023/06/26 09:55:43;;;;;;;11.43;2.58;;;;;;;30.70;33.35;100719.19;4940200;29;20412;-84
2023/06/26 09:58:37;;;;;;;10.15;2.38;;;;;;;30.63;34.41;100713.84;4934699;29;20044;-83
2023/06/26 10:01:30;;;;;;;4.10;2.15;;;;;;;30.61;33.48;100717.09;4929500;29;20052;-83
2023/06/26 10:04:24;;;;;;;5.00;2.22;;;;;;;30.65;33.82;100711.34;4935577;29;20050;-86
2023/06/26 10:07:20;;;;;;;9.40;2.20;;;;;;;30.63;33.57;100711.03;4946241;29;20047;-83
2023/06/26 10:10:15;;;;;;;4.85;2.45;;;;;;;30.67;34.32;100708.88;4917887;29;20048;-84
2023/06/26 10:13:23;;;;;;;10.30;2.30;;;;;;;30.67;34.07;100703.28;4936506;29;20047;-83
2023/06/26 10:16:17;;;;;;;5.88;2.30;;;;;;;30.67;32.49;100703.28;4931589;29;20057;-83
2023/06/26 10:19:13;;;;;;;44.00;4.80;;;;;;;30.73;32.66;100701.47;4925481;29;20427;-83
2023/06/26 10:22:09;;;;;;;9.65;2.45;;;;;;;30.78;32.90;100701.66;4919336;29;20044;-85
2023/06/26 10:25:08;;;;;;;8.38;2.85;;;;;;;30.85;31.94;100697.81;4933650;29;20054;-83
2023/06/26 10:28:06;;;;;;;4.47;2.28;;;;;;;30.91;31.11;100699.59;4931457;29;20040;-84
2023/06/26 10:31:04;;;;;;;4.05;2.30;;;;;;;31.07;31.46;100698.66;4936604;29;20055;-82
2023/06/26 10:33:58;;;;;;;6.30;2.00;;;;;;;30.98;31.44;100704.19;4921791;29;20044;-83
2023/06/26 10:37:00;;;;;;;34.50;4.38;;;;;;;30.93;31.33;100699.16;4934037;29;20051;-85
2023/06/26 10:39:55;;;;;;;6.32;2.60;;;;;;;31.05;31.17;100701.13;4939452;29;20036;-83
2023/06/26 10:42:49;;;;;;;12.80;2.50;;;;;;;31.09;31.27;100698.22;4920334;29;20070;-84
2023/06/26 10:45:51;;;;;;;8.65;2.30;;;;;;;31.24;32.03;100697.22;4918217;29;20063;-84
2023/06/26 10:49:04;;;;;;;4.18;1.92;;;;;;;31.16;33.13;100698.72;4919705;29;20112;-84
2023/06/26 10:51:56;;;;;;;16.73;3.15;;;;;;;31.09;33.76;100693.34;4918950;29;20051;-85
2023/06/26 10:54:52;;;;;;;2.47;1.80;;;;;;;31.09;32.04;100696.16;4927993;29;20050;-83
2023/06/26 10:57:49;;;;;;;4.43;1.90;;;;;;;31.26;32.18;100689.13;4943731;29;20046;-84
2023/06/26 11:00:53;;;;;;;6.90;2.15;;;;;;;31.46;31.75;100680.34;4942713;29;20050;-87
2023/06/26 11:04:15;;;;;;;12.48;2.40;;;;;;;31.38;31.55;100687.47;4920212;29;20044;-87
2023/06/26 11:07:29;;;;;;;2.65;2.17;;;;;;;31.41;30.27;100683.75;4927557;29;20040;-86
2023/06/26 11:10:23;;;;;;;14.73;3.42;;;;;;;31.60;30.46;100681.84;4936484;29;20051;-87
2023/06/26 11:13:15;;;;;;;5.75;2.47;;;;;;;31.76;31.62;100681.63;4928914;29;20047;-85
2023/06/26 11:16:10;;;;;;;11.38;3.03;;;;;;;31.63;32.16;100678.13;4929467;29;20052;-85
2023/06/26 11:19:01;;;;;;;5.75;2.50;;;;;;;31.58;32.01;100675.91;4941102;29;20055;-84
2023/06/26 11:21:57;;;;;;;10.70;2.70;;;;;;;31.44;32.17;100677.97;4939714;29;20043;-85
2023/06/26 11:24:54;;;;;;;7.57;2.50;;;;;;;31.50;31.38;100668.94;4940454;29;20051;-84
2023/06/26 11:27:49;;;;;;;4.38;2.92;;;;;;;31.62;30.51;100685.00;4944308;29;20046;-85
2023/06/26 11:30:44;;;;;;;6.00;3.00;;;;;;;31.86;30.25;100683.22;4937683;29;20051;-84
2023/06/26 11:33:38;;;;;;;9.20;3.22;;;;;;;31.97;30.54;100688.41;4941082;29;20051;-84
2023/06/26 11:36:34;;;;;;;6.68;3.20;;;;;;;32.00;30.41;100679.84;4939402;29;20059;-84
2023/06/26 11:39:28;;;;;;;109.13;8.35;;;;;;;31.88;30.54;100671.50;4927726;29;20050;-83
2023/06/26 11:42:24;;;;;;;6.30;2.90;;;;;;;31.79;30.54;100675.09;4920894;29;20052;-85
2023/06/26 11:45:19;;;;;;;4.13;2.70;;;;;;;31.97;29.79;100672.31;4936124;28;20055;-84
2023/06/26 11:48:11;;;;;;;5.78;2.78;;;;;;;31.91;31.32;100671.38;4940618;29;20063;-84
2023/06/26 11:51:08;;;;;;;5.05;2.63;;;;;;;32.07;30.77;100667.50;4930813;29;20054;-84
2023/06/26 11:54:05;;;;;;;11.35;2.70;;;;;;;32.17;30.51;100672.72;4946480;29;20066;-84
2023/06/26 11:57:00;;;;;;;5.25;3.13;;;;;;;32.32;29.82;100658.06;4948482;28;20051;-85
2023/06/26 11:59:55;;;;;;;4.25;3.13;;;;;;;32.43;29.65;100655.59;4941382;29;20050;-85
2023/06/26 12:02:50;;;;;;;9.60;2.25;;;;;;;32.29;30.78;100656.19;4944724;29;20055;-84
2023/06/26 12:05:40;;;;;;;6.22;2.17;;;;;;;32.19;30.77;100659.00;4929781;29;20050;-85
2023/06/26 12:08:35;;;;;;;7.97;2.72;;;;;;;32.14;30.53;100651.16;4926326;29;20046;-85
2023/06/26 12:11:29;;;;;;;5.78;2.20;;;;;;;32.17;30.48;100650.22;4939796;29;20058;-84
2023/06/26 12:14:28;;;;;;;5.33;2.20;;;;;;;32.09;31.47;100646.13;4928360;29;20043;-85
2023/06/26 12:17:27;;;;;;;3.33;2.38;;;;;;;32.13;29.56;100646.78;4931677;29;20295;-86
2023/06/26 12:20:25;;;;;;;5.53;2.47;;;;;;;32.19;30.82;100658.22;4940286;29;20054;-85
2023/06/26 12:23:20;;;;;;;3.58;2.28;;;;;;;32.33;29.44;100645.56;4939862;29;20051;-86
2023/06/26 12:26:23;;;;;;;7.22;2.58;;;;;;;32.29;29.32;100645.72;4946653;29;20046;-86
2023/06/26 12:29:17;;;;;;;4.88;2.50;;;;;;;32.10;31.02;100647.66;4942239;29;20050;-85
2023/06/26 12:32:15;;;;;;;3.65;2.33;;;;;;;32.06;30.08;100647.03;4929258;29;20047;-84
2023/06/26 12:35:08;;;;;;;10.43;1.98;;;;;;;32.22;30.33;100646.78;4932672;29;20070;-85
2023/06/26 12:38:03;;;;;;;6.88;2.88;;;;;;;32.36;29.50;100644.63;4945412;29;20043;-85
2023/06/26 12:41:01;;;;;;;6.88;2.22;;;;;;;32.39;29.78;100640.88;4940135;29;20051;-85
2023/06/26 12:43:59;;;;;;;17.80;2.88;;;;;;;32.55;29.79;100637.78;4940048;29;20050;-85
2023/06/26 12:46:56;;;;;;;4.90;2.45;;;;;;;32.62;30.91;100629.78;4924896;29;20043;-83
2023/06/26 12:49:56;;;;;;;7.13;2.00;;;;;;;32.56;30.37;100640.09;4941277;29;20055;-84
2023/06/26 12:52:50;;;;;;;12.98;2.78;;;;;;;32.43;32.15;100638.69;4912482;29;20060;-84
2023/06/26 12:55:40;;;;;;;4.90;2.25;;;;;;;32.35;32.12;100634.63;4926359;29;20418;-90
2023/06/26 12:58:32;;;;;;;2.72;2.25;;;;;;;32.35;31.70;100637.44;4947111;29;20723;-84
2023/06/26 13:01:27;;;;;;;9.65;3.03;;;;;;;32.21;32.15;100631.16;4941343;29;20062;-83
2023/06/26 13:04:19;;;;;;;3.17;2.67;;;;;;;32.32;31.77;100621.47;4942094;29;20117;-84
2023/06/26 13:07:11;;;;;;;5.88;3.13;;;;;;;32.30;32.18;100621.16;4940967;29;20058;-84
2023/06/26 13:10:05;;;;;;;3.63;2.90;;;;;;;32.25;33.61;100625.38;4947483;29;20062;-84
2023/06/26 13:13:00;;;;;;;4.65;2.40;;;;;;;32.15;32.55;100615.38;4959677;29;20046;-82
2023/06/26 13:15:55;;;;;;;9.55;2.78;;;;;;;32.12;33.39;100619.09;4962923;28;20414;-82
2023/06/26 13:18:49;;;;;;;12.00;3.03;;;;;;;32.10;33.68;100622.34;4958384;28;20125;-82
2023/06/26 13:21:44;;;;;;;14.52;3.38;;;;;;;32.15;33.38;100616.13;4958164;28;20093;-82
2023/06/26 13:24:39;;;;;;;4.40;2.67;;;;;;;31.98;33.17;100614.03;4945983;28;20040;-82
2023/06/26 13:27:31;;;;;;;5.65;2.92;;;;;;;32.00;32.64;100605.91;4947278;29;20051;-82
2023/06/26 13:30:25;;;;;;;5.63;3.05;;;;;;;31.94;33.58;100602.94;4947355;29;20055;-82
2023/06/26 13:33:20;;;;;;;4.05;2.97;;;;;;;31.87;32.98;100603.22;4943181;29;20050;-83
2023/06/26 13:36:12;;;;;;;5.32;2.75;;;;;;;31.81;32.58;100594.59;4942921;29;20050;-83